Time;durP1;ratioP1;P1;durP2;ratioP2;P2;SDS_P1;SDS_P2;PMS_P1;PMS_P2;Temp;Humidity;BMP_temperature;BMP_pressure;BME280_temperature;BME280_humidity;BME280_pressure;Samples;Min_cycle;Max_cycle;Signal;HPM_P1;HPM_P2
2023/07/18 00:02:56;;;;;;;;;;;17.80;99.90;;;;;;21000940;28;19923;-77
2023/07/18 00:12:57;;;;;;;;;;;17.90;99.90;;;;;;20982434;28;19916;-77
2023/07/18 00:22:59;;;;;;;;;;;18.10;99.90;;;;;;21010984;28;19988;-78
2023/07/18 00:33:00;;;;;;;;;;;18.20;99.90;;;;;;20985422;28;20291;-77
2023/07/18 00:43:00;;;;;;;;;;;18.20;99.90;;;;;;20984531;28;19916;-78
2023/07/18 00:53:01;;;;;;;;;;;18.10;99.90;;;;;;20982909;28;19979;-75
2023/07/18 01:03:02;;;;;;;;;;;18.10;99.90;;;;;;20960959;28;19916;-77
2023/07/18 01:13:03;;;;;;;;;;;18.30;99.90;;;;;;20982114;28;20042;-77
2023/07/18 01:23:04;;;;;;;;;;;18.30;99.90;;;;;;20977845;28;20001;-78
2023/07/18 01:33:04;;;;;;;;;;;18.20;99.90;;;;;;21011621;28;19920;-79
2023/07/18 01:43:05;;;;;;;;;;;17.90;99.90;;;;;;21020309;28;19917;-77
2023/07/18 01:53:06;;;;;;;;;;;16.90;99.90;;;;;;21028966;28;19913;-77
2023/07/18 02:03:07;;;;;;;;;;;16.80;99.90;;;;;;21030839;28;19963;-78
2023/07/18 02:13:07;;;;;;;;;;;17.10;99.90;;;;;;21028189;28;19917;-79
2023/07/18 02:23:08;;;;;;;;;;;16.80;99.90;;;;;;21005523;28;19920;-78
2023/07/18 02:33:09;;;;;;;;;;;16.80;99.90;;;;;;21007907;28;20298;-77
2023/07/18 02:43:13;;;;;;;;;;;16.80;99.90;;;;;;21008735;28;19916;-78
2023/07/18 02:53:13;;;;;;;;;;;17.00;99.90;;;;;;21017954;28;19913;-79
2023/07/18 03:03:14;;;;;;;;;;;17.00;99.90;;;;;;21006560;28;19917;-79
2023/07/18 03:13:14;;;;;;;;;;;17.10;99.90;;;;;;21033824;28;19913;-77
2023/07/18 03:23:15;;;;;;;;;;;16.80;99.90;;;;;;21009745;28;19927;-78
2023/07/18 03:33:17;;;;;;;;;;;16.80;99.90;;;;;;21010193;28;19926;-78
2023/07/18 03:43:17;;;;;;;;;;;16.90;99.90;;;;;;21101016;28;19920;-79
2023/07/18 03:53:18;;;;;;;;;;;16.90;99.90;;;;;;21016836;28;19916;-77
2023/07/18 04:03:19;;;;;;;;;;;16.90;99.90;;;;;;21016197;28;20413;-78
2023/07/18 04:13:20;;;;;;;;;;;16.80;99.90;;;;;;20994425;28;19917;-78
2023/07/18 04:23:21;;;;;;;;;;;16.80;99.90;;;;;;21015379;28;19916;-76
2023/07/18 04:33:22;;;;;;;;;;;16.80;99.90;;;;;;21011628;28;19924;-77
2023/07/18 04:43:22;;;;;;;;;;;16.80;99.90;;;;;;21008548;28;19916;-77
2023/07/18 04:53:25;;;;;;;;;;;16.90;99.90;;;;;;20992012;28;19962;-77
2023/07/18 05:03:26;;;;;;;;;;;17.10;99.90;;;;;;21009865;28;20408;-76
2023/07/18 05:13:26;;;;;;;;;;;17.30;99.90;;;;;;21006134;28;19944;-75
2023/07/18 05:23:27;;;;;;;;;;;17.60;99.90;;;;;;21012699;28;19923;-75
2023/07/18 05:33:28;;;;;;;;;;;17.70;99.90;;;;;;20991669;28;20294;-75
2023/07/18 05:43:29;;;;;;;;;;;18.10;99.90;;;;;;21033750;28;20374;-75
2023/07/18 05:53:29;;;;;;;;;;;18.70;99.90;;;;;;21040101;28;19913;-76
2023/07/18 06:03:30;;;;;;;;;;;18.90;99.90;;;;;;20970458;28;19985;-76
2023/07/18 06:13:30;;;;;;;;;;;19.10;99.90;;;;;;20987891;28;19992;-76
2023/07/18 06:23:31;;;;;;;;;;;19.50;99.90;;;;;;20993094;28;19970;-76
2023/07/18 06:33:32;;;;;;;;;;;19.90;99.90;;;;;;21001585;28;19916;-77
2023/07/18 06:43:33;;;;;;;;;;;20.20;99.90;;;;;;21000727;28;19917;-77
2023/07/18 06:53:36;;;;;;;;;;;20.90;99.90;;;;;;20985426;28;20346;-75
2023/07/18 07:03:36;;;;;;;;;;;21.50;99.90;;;;;;21006820;28;19922;-79
2023/07/18 07:13:37;;;;;;;;;;;22.00;99.90;;;;;;21028766;28;20006;-80
2023/07/18 07:23:38;;;;;;;;;;;22.40;99.90;;;;;;21011435;28;19921;-80
2023/07/18 07:33:38;;;;;;;;;;;22.50;99.90;;;;;;21028023;28;19921;-77
2023/07/18 07:43:39;;;;;;;;;;;23.50;99.90;;;;;;21033755;28;19916;-79
2023/07/18 07:53:40;;;;;;;;;;;24.30;99.90;;;;;;21001189;28;20387;-77
2023/07/18 08:03:41;;;;;;;;;;;24.70;99.90;;;;;;20994502;28;19962;-77
2023/07/18 08:13:41;;;;;;;;;;;25.10;99.90;;;;;;20993583;28;19912;-77
2023/07/18 08:23:42;;;;;;;;;;;25.10;99.90;;;;;;20994787;28;19916;-77
2023/07/18 08:33:44;;;;;;;;;;;24.90;99.90;;;;;;21021172;28;19916;-78
2023/07/18 08:43:45;;;;;;;;;;;26.20;99.90;;;;;;20988939;28;19916;-78
2023/07/18 08:53:46;;;;;;;;;;;27.20;99.90;;;;;;21007489;28;19920;-76
2023/07/18 09:03:46;;;;;;;;;;;27.60;99.90;;;;;;20993712;28;19917;-76
2023/07/18 09:13:47;;;;;;;;;;;27.80;99.90;;;;;;20990169;28;20486;-76
2023/07/18 09:23:49;;;;;;;;;;;27.60;99.90;;;;;;20990449;28;19955;-77
2023/07/18 09:33:50;;;;;;;;;;;28.20;99.20;;;;;;20989342;28;19948;-77
2023/07/18 09:43:52;;;;;;;;;;;28.10;99.90;;;;;;20989127;28;19916;-77
2023/07/18 09:53:56;;;;;;;;;;;27.30;99.90;;;;;;20988731;28;19913;-78
2023/07/18 10:03:57;;;;;;;;;;;29.10;98.60;;;;;;21002773;28;20295;-78
2023/07/18 10:13:58;;;;;;;;;;;29.20;97.80;;;;;;21004286;28;19935;-75
2023/07/18 10:24:26;;;;;;;;;;;29.40;97.90;;;;;;21005547;28;20010;-77
2023/07/18 10:34:26;;;;;;;;;;;29.50;97.90;;;;;;21000209;28;20420;-78
2023/07/18 10:44:29;;;;;;;;;;;28.70;98.60;;;;;;21001273;28;19916;-77
2023/07/18 10:54:30;;;;;;;;;;;26.10;99.90;;;;;;21000654;28;19923;-75
2023/07/18 11:04:31;;;;;;;;;;;25.30;99.90;;;;;;21000419;28;19947;-76
2023/07/18 11:14:38;;;;;;;;;;;24.20;99.90;;;;;;20980104;28;19966;-75
2023/07/18 11:24:43;;;;;;;;;;;23.80;99.90;;;;;;20997670;28;19962;-76
2023/07/18 11:34:55;;;;;;;;;;;21.90;99.90;;;;;;21040789;28;19916;-75
2023/07/18 11:44:56;;;;;;;;;;;21.70;99.90;;;;;;21079668;28;19958;-77
2023/07/18 11:54:56;;;;;;;;;;;23.00;99.90;;;;;;21057043;28;19912;-75
2023/07/18 12:04:57;;;;;;;;;;;22.80;99.90;;;;;;20997088;28;19995;-76
2023/07/18 12:14:58;;;;;;;;;;;24.30;99.90;;;;;;20993608;28;20008;-75
2023/07/18 12:24:58;;;;;;;;;;;24.10;99.90;;;;;;20991837;28;19920;-75
2023/07/18 12:34:59;;;;;;;;;;;24.00;99.90;;;;;;20992236;28;19927;-75
2023/07/18 12:44:59;;;;;;;;;;;23.20;99.90;;;;;;20991551;28;20010;-74
2023/07/18 12:55:00;;;;;;;;;;;25.50;99.90;;;;;;20990909;28;19912;-75
2023/07/18 13:05:01;;;;;;;;;;;25.70;99.90;;;;;;20990510;28;20007;-76
2023/07/18 13:15:02;;;;;;;;;;;25.90;99.90;;;;;;20989874;28;20268;-77
2023/07/18 13:25:04;;;;;;;;;;;27.20;99.90;;;;;;20991571;28;19955;-77
2023/07/18 13:35:04;;;;;;;;;;;27.20;99.90;;;;;;21006819;28;20405;-75
2023/07/18 13:45:07;;;;;;;;;;;28.40;99.90;;;;;;20990107;28;19916;-77
2023/07/18 13:55:08;;;;;;;;;;;28.50;99.90;;;;;;21009913;28;20007;-77
2023/07/18 14:05:08;;;;;;;;;;;28.60;99.90;;;;;;21001524;28;19959;-76
2023/07/18 14:15:09;;;;;;;;;;;29.00;99.90;;;;;;21101745;28;19965;-76
2023/07/18 14:25:10;;;;;;;;;;;28.50;99.90;;;;;;21073859;28;20410;-76
2023/07/18 14:35:10;;;;;;;;;;;29.10;99.90;;;;;;21002961;28;19916;-77
2023/07/18 14:45:11;;;;;;;;;;;29.00;99.90;;;;;;21000223;28;19923;-76
2023/07/18 14:55:12;;;;;;;;;;;29.00;99.90;;;;;;21000151;28;19913;-76
2023/07/18 15:05:12;;;;;;;;;;;29.30;99.90;;;;;;21000065;28;19950;-77
2023/07/18 15:15:13;;;;;;;;;;;29.80;99.90;;;;;;21006103;28;20398;-76
2023/07/18 15:25:14;;;;;;;;;;;29.40;99.90;;;;;;21008030;28;19921;-78
2023/07/18 15:35:15;;;;;;;;;;;29.30;99.90;;;;;;21073497;28;20053;-80
2023/07/18 15:45:15;;;;;;;;;;;30.10;99.90;;;;;;21064883;28;19952;-79
2023/07/18 15:55:16;;;;;;;;;;;29.80;99.90;;;;;;21013355;28;19943;-79
2023/07/18 16:05:17;;;;;;;;;;;28.80;99.90;;;;;;21019696;28;20322;-80
2023/07/18 16:15:19;;;;;;;;;;;28.20;99.90;;;;;;20993046;28;19928;-78
2023/07/18 16:25:20;;;;;;;;;;;28.60;99.90;;;;;;20979097;28;19920;-79
2023/07/18 16:35:20;;;;;;;;;;;28.70;99.90;;;;;;20994309;28;19984;-79
2023/07/18 16:45:21;;;;;;;;;;;28.90;99.90;;;;;;20893696;28;20004;-79
2023/07/18 16:55:22;;;;;;;;;;;28.60;99.90;;;;;;20868993;28;19920;-78
2023/07/18 17:05:23;;;;;;;;;;;28.60;99.90;;;;;;20845043;28;19917;-79
2023/07/18 17:15:24;;;;;;;;;;;28.60;99.90;;;;;;20881417;28;19913;-80
2023/07/18 17:25:27;;;;;;;;;;;28.70;99.90;;;;;;20881497;28;19959;-77
2023/07/18 17:35:27;;;;;;;;;;;28.80;99.90;;;;;;20973508;28;20401;-77
2023/07/18 17:45:28;;;;;;;;;;;28.70;99.90;;;;;;21049068;28;19917;-78
2023/07/18 17:55:29;;;;;;;;;;;27.90;99.90;;;;;;20951737;28;19977;-77
2023/07/18 18:05:46;;;;;;;;;;;27.80;99.90;;;;;;20979726;28;19921;-80
2023/07/18 18:15:47;;;;;;;;;;;27.80;99.90;;;;;;20963234;28;19913;-82
2023/07/18 18:25:48;;;;;;;;;;;27.80;99.90;;;;;;20992892;28;20394;-79
2023/07/18 18:35:49;;;;;;;;;;;26.50;99.90;;;;;;20931858;28;19991;-78
2023/07/18 18:45:55;;;;;;;;;;;25.80;99.90;;;;;;20959813;28;19950;-81
2023/07/18 18:55:56;;;;;;;;;;;25.20;99.90;;;;;;20932606;28;20432;-82
2023/07/18 19:05:57;;;;;;;;;;;24.80;99.90;;;;;;20947946;28;19976;-80
2023/07/18 19:15:58;;;;;;;;;;;24.70;99.90;;;;;;20950339;28;19913;-79
2023/07/18 19:25:59;;;;;;;;;;;24.30;99.90;;;;;;20983778;28;19951;-78
2023/07/18 19:35:59;;;;;;;;;;;24.00;99.90;;;;;;21033310;28;19920;-80
2023/07/18 19:46:00;;;;;;;;;;;23.60;99.90;;;;;;21044369;28;19916;-80
2023/07/18 19:56:02;;;;;;;;;;;23.40;99.90;;;;;;21040406;28;20302;-79
2023/07/18 20:06:03;;;;;;;;;;;23.20;99.90;;;;;;21072249;28;19916;-79
2023/07/18 20:16:04;;;;;;;;;;;22.60;99.90;;;;;;21116904;28;19912;-80
2023/07/18 20:26:04;;;;;;;;;;;22.40;99.90;;;;;;21031959;28;19940;-79
2023/07/18 20:36:05;;;;;;;;;;;22.10;99.90;;;;;;21030238;28;19929;-80
2023/07/18 20:46:07;;;;;;;;;;;21.90;99.90;;;;;;21019812;28;20487;-80
2023/07/18 20:56:08;;;;;;;;;;;21.90;99.90;;;;;;21013855;28;19980;-79
2023/07/18 21:06:12;;;;;;;;;;;21.80;99.90;;;;;;21039939;28;19916;-81
2023/07/18 21:16:13;;;;;;;;;;;21.60;99.90;;;;;;21070320;28;19938;-79
2023/07/18 21:26:13;;;;;;;;;;;21.80;99.90;;;;;;21006277;28;19917;-80
2023/07/18 21:36:14;;;;;;;;;;;21.70;99.90;;;;;;21012902;28;19916;-80
2023/07/18 21:46:15;;;;;;;;;;;21.70;99.90;;;;;;21024979;28;19916;-80
2023/07/18 21:56:15;;;;;;;;;;;21.60;99.90;;;;;;21020853;28;19920;-79
2023/07/18 22:06:16;;;;;;;;;;;21.80;99.90;;;;;;21001458;28;19917;-80
2023/07/18 22:16:17;;;;;;;;;;;21.80;99.90;;;;;;21017409;28;19940;-80
2023/07/18 22:26:17;;;;;;;;;;;21.60;99.90;;;;;;21018524;28;20000;-80
2023/07/18 22:36:18;;;;;;;;;;;21.20;99.90;;;;;;21002746;28;19916;-79
2023/07/18 22:46:18;;;;;;;;;;;20.90;99.90;;;;;;21017387;28;19920;-79
2023/07/18 22:56:20;;;;;;;;;;;20.70;99.90;;;;;;20986909;28;19916;-78
2023/07/18 23:06:21;;;;;;;;;;;20.40;99.90;;;;;;20982148;28;19916;-79
2023/07/18 23:16:22;;;;;;;;;;;20.30;99.90;;;;;;21024936;28;20439;-78
2023/07/18 23:26:22;;;;;;;;;;;20.10;99.90;;;;;;21005732;28;19978;-78
2023/07/18 23:36:23;;;;;;;;;;;19.80;99.90;;;;;;21019145;28;20275;-78
2023/07/18 23:46:23;;;;;;;;;;;19.90;99.90;;;;;;21008335;23;20417;-81
2023/07/18 23:56:24;;;;;;;;;;;19.80;99.90;;;;;;20971342;28;19931;-81
